Archival Weather

South Haven Area Rgnl

South Haven, Michigan (KLWA)

Report from: Thursday, September 21, 2023 3:15 PM EDT
Current time: Sunday, July 14, 2024 7:19 AM EDT

Current weather – Weather history – Daily summaries
Weather forecast

Temperature25.5°C (77.9°F)
Dew point16.9°C (62.4°F)
Winds Calm
Visibility10 mi. (16.1 km)
Clouds Scattered clouds 12,000 ft. (3,658 m)
Altimeter30.21 in.Hg (1023 mB)
Relative humidity59 %
Density altitude1,151 ft. (351 m)
Remarks Fully automated report
Automated weather observing station with precipitation discriminator
Flight conditions Visual Meteorological Conditions
Raw dataKLWA 211915Z AUTO 00000KT 10SM SCT120 26/17 A3021 RMK AO2 T02550169
An error has occurred. This application may no longer respond until reloaded. Reload 🗙